Saint Martinville, Louisiana
Current Conditions -  °F | °C
As of 7:53 PM on Wednesday 26 Nov 2014 (Local Time) from KARA Reporting Station
Clear Clear  
Wind Chill: 59°   Ceiling: Unl
Heat Index: 59°   Visibility: 10mi
Dew Point: 49°   Wind: 9mph
Humidity: 69%   Direction: 260°W
Pressure: 30.25"   Gusts: NA
Location:  30.13°N, 91.83°W
Report Text: KARA 270153Z 26008KT 10SM CLR 15/09 A3025 RMK AO2 SLP243 T01500094
Loading
Personal Weather Stations






























Interactive Weather Map New forecast layout! Learn more

10-Day Weather Forecast

Advertisements
Track Severe Weather on mobile